createdAt,value
2022-09-04T00:01:45.326Z,100.00
2022-09-04T00:07:02.831Z,100.00
2022-09-04T00:12:05.448Z,100.00
2022-09-04T00:17:23.323Z,100.00
2022-09-04T00:22:30.115Z,100.00
2022-09-04T00:27:32.915Z,100.00
2022-09-04T00:32:49.851Z,100.00
2022-09-04T00:37:56.196Z,100.00
2022-09-04T00:43:22.975Z,100.00
2022-09-04T00:48:56.694Z,100.00
2022-09-04T00:54:23.686Z,100.00
2022-09-04T00:59:41.958Z,100.00
2022-09-04T01:04:43.167Z,100.00
2022-09-04T01:09:57.817Z,100.00
2022-09-04T01:15:15.646Z,100.00
2022-09-04T01:20:40.040Z,100.00
2022-09-04T01:26:31.741Z,100.00
2022-09-04T01:32:06.064Z,100.00
2022-09-04T01:37:35.675Z,100.00
2022-09-04T01:43:03.069Z,100.00
2022-09-04T01:48:04.197Z,100.00
2022-09-04T01:53:25.147Z,100.00
2022-09-04T01:58:51.444Z,100.00
2022-09-04T02:04:22.218Z,100.00
2022-09-04T02:09:34.587Z,100.00
2022-09-04T02:14:48.552Z,100.00
2022-09-04T02:20:01.582Z,100.00
2022-09-04T02:25:25.154Z,100.00
2022-09-04T02:30:21.689Z,100.00
2022-09-04T02:35:30.096Z,100.00
2022-09-04T02:40:44.837Z,100.00
2022-09-04T02:46:07.140Z,100.00
2022-09-04T02:51:35.061Z,100.00
2022-09-04T02:56:39.716Z,100.00
2022-09-04T03:01:49.911Z,100.00
2022-09-04T03:07:08.726Z,100.00
2022-09-04T03:12:34.969Z,100.00
2022-09-04T03:18:02.794Z,100.00
2022-09-04T03:23:23.801Z,100.00
2022-09-04T03:28:48.260Z,100.00
2022-09-04T03:33:59.950Z,100.00
2022-09-04T03:39:30.762Z,100.00
2022-09-04T03:44:43.819Z,100.00
2022-09-04T03:50:11.996Z,100.00
2022-09-04T03:55:41.080Z,100.00
2022-09-04T04:01:13.242Z,100.00
2022-09-04T04:06:17.513Z,100.00
2022-09-04T04:11:40.122Z,100.00
2022-09-04T04:17:07.643Z,100.00
2022-09-04T04:22:33.216Z,100.00
2022-09-04T04:27:52.961Z,100.00
2022-09-04T04:33:09.828Z,100.00
2022-09-04T04:38:24.906Z,100.00
2022-09-04T04:43:45.710Z,100.00
2022-09-04T04:49:19.755Z,100.00
2022-09-04T04:54:46.282Z,100.00
2022-09-04T05:00:05.648Z,100.00
2022-09-04T05:05:14.223Z,100.00
2022-09-04T05:10:30.958Z,100.00
2022-09-04T05:16:09.074Z,100.00
2022-09-04T05:21:23.177Z,100.00
2022-09-04T05:26:31.097Z,100.00
2022-09-04T05:32:06.479Z,100.00
2022-09-04T05:37:28.742Z,100.00
2022-09-04T05:42:45.481Z,100.00
2022-09-04T05:48:05.305Z,100.00
2022-09-04T05:53:29.398Z,100.00
2022-09-04T05:58:55.980Z,100.00
2022-09-04T06:04:30.283Z,100.00
2022-09-04T06:09:39.330Z,100.00
2022-09-04T06:15:01.170Z,100.00
2022-09-04T06:20:38.332Z,100.00
2022-09-04T06:25:37.419Z,100.00
2022-09-04T06:30:44.294Z,100.00
2022-09-04T06:35:58.968Z,100.00
2022-09-04T06:41:18.630Z,100.00
2022-09-04T06:46:17.756Z,100.00
2022-09-04T06:51:27.057Z,100.00
2022-09-04T06:56:23.352Z,100.00
2022-09-04T07:01:42.679Z,100.00
2022-09-04T07:06:55.357Z,100.00
2022-09-04T07:12:13.883Z,100.00
2022-09-04T07:17:40.305Z,100.00
2022-09-04T07:23:23.313Z,100.00
2022-09-04T07:28:39.025Z,100.00
2022-09-04T07:33:50.685Z,100.00
2022-09-04T07:39:07.725Z,98.33
2022-09-04T07:44:20.790Z,97.38
2022-09-04T07:49:43.238Z,93.96
2022-09-04T07:55:13.230Z,89.67
2022-09-04T08:00:18.156Z,84.02
2022-09-04T08:05:23.987Z,84.88
2022-09-04T08:10:27.554Z,85.31
2022-09-04T08:15:49.853Z,86.64
2022-09-04T08:21:01.291Z,82.14
2022-09-04T08:26:41.222Z,84.11
2022-09-04T08:31:42.506Z,84.58
2022-09-04T08:36:48.980Z,84.82
2022-09-04T08:42:01.297Z,94.01
2022-09-04T08:47:20.717Z,91.76
2022-09-04T08:53:10.668Z,82.22
2022-09-04T08:58:13.749Z,86.34
2022-09-04T09:03:15.707Z,84.58
2022-09-04T09:08:39.877Z,85.77
2022-09-04T09:13:50.692Z,85.95
2022-09-04T09:19:14.816Z,75.09
2022-09-04T09:24:42.738Z,71.76
2022-09-04T09:30:05.283Z,69.15
2022-09-04T09:35:41.814Z,65.61
2022-09-04T09:41:06.453Z,66.97
2022-09-04T09:46:35.180Z,65.17
2022-09-04T09:51:58.798Z,67.46
2022-09-04T09:57:33.663Z,68.94
2022-09-04T10:02:38.186Z,66.95
2022-09-04T10:07:59.588Z,62.42
2022-09-04T10:13:33.882Z,61.08
2022-09-04T10:19:08.812Z,61.96
2022-09-04T10:24:23.179Z,64.77
2022-09-04T10:29:44.875Z,61.18
2022-09-04T10:35:09.612Z,59.86
2022-09-04T10:40:37.631Z,59.72
2022-09-04T10:45:38.964Z,60.19
2022-09-04T10:51:00.132Z,59.33
2022-09-04T10:56:05.504Z,60.91
2022-09-04T11:01:38.024Z,56.55
2022-09-04T11:06:55.357Z,54.89
2022-09-04T11:12:31.017Z,54.84
2022-09-04T11:17:48.978Z,52.37
2022-09-04T11:23:24.673Z,53.11
2022-09-04T11:28:52.718Z,52.88
2022-09-04T11:34:13.838Z,53.98
2022-09-04T11:39:26.123Z,56.05
2022-09-04T11:44:41.654Z,54.67
2022-09-04T11:50:08.474Z,52.68
2022-09-04T11:55:22.314Z,52.99
2022-09-04T12:00:19.745Z,52.79
2022-09-04T12:05:42.355Z,51.67
2022-09-04T12:10:59.697Z,53.42
2022-09-04T12:16:02.254Z,53.37
2022-09-04T12:21:18.213Z,50.73
2022-09-04T12:26:29.996Z,50.96
2022-09-04T12:31:35.586Z,53.99
2022-09-04T12:37:11.366Z,52.48
2022-09-04T12:42:14.463Z,49.62
2022-09-04T12:47:18.203Z,49.06
2022-09-04T12:52:45.487Z,46.26
2022-09-04T12:57:55.718Z,48.23
2022-09-04T13:03:13.239Z,47.81
2022-09-04T13:08:38.416Z,47.32
2022-09-04T13:13:59.421Z,48.67
2022-09-04T13:19:34.246Z,46.42
2022-09-04T13:24:58.026Z,47.97
2022-09-04T13:30:06.661Z,45.34
2022-09-04T13:35:13.845Z,45.10
2022-09-04T13:40:22.892Z,47.86
2022-09-04T13:45:25.416Z,47.16
2022-09-04T13:50:35.926Z,48.03
2022-09-04T13:55:39.362Z,47.38
2022-09-04T14:00:39.329Z,45.13
2022-09-04T14:05:37.567Z,44.32
2022-09-04T14:10:36.699Z,43.34
2022-09-04T14:15:58.033Z,43.09
2022-09-04T14:21:01.117Z,44.50
2022-09-04T14:26:40.751Z,45.08
2022-09-04T14:31:50.594Z,43.65
2022-09-04T14:36:59.768Z,45.07
2022-09-04T14:42:12.156Z,45.67
2022-09-04T14:47:27.256Z,46.58
2022-09-04T14:52:28.458Z,44.12
2022-09-04T14:57:57.735Z,43.89
2022-09-04T15:02:54.013Z,45.26
2022-09-04T15:08:00.006Z,44.54
2022-09-04T15:13:06.034Z,43.21
2022-09-04T15:18:29.082Z,42.13
2022-09-04T15:23:47.652Z,40.86
2022-09-04T15:28:59.130Z,40.09
2022-09-04T15:34:02.578Z,41.42
2022-09-04T15:39:04.871Z,42.08
2022-09-04T15:44:15.342Z,41.74
2022-09-04T15:49:29.247Z,43.25
2022-09-04T15:54:31.865Z,44.42
2022-09-04T15:59:48.848Z,44.60
2022-09-04T16:05:03.119Z,44.26
2022-09-04T16:10:25.727Z,44.21
2022-09-04T16:15:42.944Z,45.06
2022-09-04T16:20:55.946Z,45.63
2022-09-04T16:25:54.745Z,46.32
2022-09-04T16:30:59.268Z,47.92
2022-09-04T16:36:04.079Z,48.03
2022-09-04T16:41:06.530Z,47.61
2022-09-04T16:46:44.530Z,47.70
2022-09-04T16:51:58.750Z,48.56
2022-09-04T16:57:12.420Z,50.03
2022-09-04T17:02:48.835Z,51.78
2022-09-04T17:07:59.159Z,52.13
2022-09-04T17:13:12.765Z,52.64
2022-09-04T17:18:10.689Z,54.02
2022-09-04T17:29:02.980Z,54.75
2022-09-04T17:29:34.463Z,55.82
2022-09-04T17:40:32.056Z,58.82
2022-09-04T17:40:50.301Z,63.20
2022-09-04T17:46:12.598Z,66.11
2022-09-04T17:51:18.085Z,70.49
2022-09-04T17:56:17.358Z,72.67
2022-09-04T18:01:51.243Z,76.83
2022-09-04T18:07:21.884Z,81.15
2022-09-04T18:12:36.659Z,91.17
2022-09-04T18:17:54.129Z,95.99
2022-09-04T18:23:16.681Z,99.32
2022-09-04T18:28:19.937Z,100.00
2022-09-04T18:37:21.858Z,100.00
2022-09-04T18:38:46.932Z,100.00
2022-09-04T18:50:25.174Z,100.00
2022-09-04T18:50:51.123Z,100.00
2022-09-04T18:54:55.984Z,100.00
2022-09-04T19:00:08.989Z,100.00
2022-09-04T19:05:09.986Z,100.00
2022-09-04T19:10:26.299Z,100.00
2022-09-04T19:15:48.807Z,100.00
2022-09-04T19:21:23.684Z,100.00
2022-09-04T19:27:20.516Z,100.00
2022-09-04T19:32:29.507Z,100.00
2022-09-04T19:43:29.131Z,100.00
2022-09-04T19:46:01.098Z,100.00
2022-09-04T19:50:12.980Z,100.00
2022-09-04T19:54:13.821Z,100.00
2022-09-04T19:59:17.861Z,100.00
2022-09-04T20:04:42.515Z,100.00
2022-09-04T20:09:49.541Z,100.00
2022-09-04T20:14:49.979Z,100.00
2022-09-04T20:20:01.327Z,100.00
2022-09-04T20:25:06.718Z,100.00
2022-09-04T20:30:12.638Z,100.00
2022-09-04T20:35:20.520Z,100.00
2022-09-04T20:40:45.878Z,100.00
2022-09-04T20:52:45.158Z,100.00
2022-09-04T20:52:56.701Z,100.00
2022-09-04T21:00:45.385Z,100.00
2022-09-04T21:03:23.004Z,100.00
2022-09-04T21:07:47.142Z,100.00
2022-09-04T21:12:52.595Z,100.00
2022-09-04T21:18:40.417Z,100.00
2022-09-04T21:24:03.828Z,100.00
2022-09-04T21:29:19.477Z,100.00
2022-09-04T21:34:43.583Z,100.00
2022-09-04T21:40:03.371Z,100.00
2022-09-04T21:45:28.239Z,100.00
2022-09-04T21:50:52.692Z,100.00
2022-09-04T22:02:30.084Z,100.00
2022-09-04T22:02:37.799Z,100.00
2022-09-04T22:13:26.239Z,100.00
2022-09-04T22:13:54.706Z,100.00
2022-09-04T22:19:16.839Z,100.00
2022-09-04T22:24:28.697Z,100.00
2022-09-04T22:29:53.955Z,100.00
2022-09-04T22:35:21.283Z,100.00
2022-09-04T22:40:56.365Z,100.00
2022-09-04T22:46:12.074Z,100.00
2022-09-04T22:51:17.247Z,100.00
2022-09-04T22:56:25.343Z,100.00
2022-09-04T23:01:37.965Z,100.00
2022-09-04T23:11:12.775Z,100.00
2022-09-04T23:13:58.373Z,100.00
2022-09-04T23:20:21.077Z,100.00
2022-09-04T23:26:41.690Z,100.00
2022-09-04T23:29:44.563Z,100.00
2022-09-04T23:35:14.371Z,100.00
2022-09-04T23:40:27.297Z,100.00
2022-09-04T23:45:26.397Z,100.00
2022-09-04T23:50:37.143Z,100.00
2022-09-04T23:56:10.753Z,100.00
